Northolt, Britanniarum Regnum

04:07 PM BST die 24o May, anno 2015 (GMT +0100)
Northolt Air Base | | Change Station
CLOSE
Current Station
Airport
Location: Northolt,
Elevation: 121 ft
Nearby Weather Stations

Elev 121 ft 51.55 °N, 0.42 °W | Updated 17 minutes ago

Overcast
Aequaliter Nubila
63 °F
Feels Like 63 °F
N
10
Ventus Variabilis Ventus from Magis Zephyrus quam Aquilo

Hodie
High -- | Low -- °F
--% Chance of Precip.
Yesterday
High -- | Low -- °F
Precip. -- in
4:58 AM 8:59 PM
Waxing Crescent, 40% visible
Pressio 30.06 in
Visibilitas 6.2 milia passuum
Clouds Few 2200 ft
Plerumque Nubila 2500 ft
Aequaliter Nubila 3000 ft
Frigus in quo Ros apparet 52 °F
Umor 68%
Rainfall 0.00 in
Snow Depth Not available.
UV 2 out of 12
Pollen Not available.
Air Quality Not available.
Flu Activity Not available.
METAR EGWU 241450Z 29009KT 9999 FEW022 BKN025 OVC030 17/11 Q1018 BLU BECMG SCT022 WHT

More Conditions Fewer Conditions

Pressio 30.06 in
Visibilitas 6.2 milia passuum
Clouds Few 2200 ft
Plerumque Nubila 2500 ft
Aequaliter Nubila 3000 ft
Frigus in quo Ros apparet 52 °F
Umor 68%
Rainfall 0.00 in
Snow Depth Not available.
UV 2 out of 12
Pollen Not available.
Air Quality Not available.
Flu Activity Not available.
METAR EGWU 241450Z 29009KT 9999 FEW022 BKN025 OVC030 17/11 Q1018 BLU BECMG SCT022 WHT

More Conditions Fewer Conditions

10-Day Weather Forecast

Almanac

Astronomy

May. 24, 2015 Rise Set
Actual Time
Civil Twilight
Nautical Twilight
Astronomical Twilight
Moon
Length Of Visible Light
Length of Day
Tomorrow will be .
, % of the Moon is Illuminated

Today's Extremes

Country Highs Country Lows

Community

WunderPhotos

Upload Photos

1,823,761 photos uploaded!

WunderBlogs® & News

Nearby

Air Quality

  Air Quality AQ Index Pollutant
Not available.

Snow Depth

Station Depth Elevation

Earthquake Activity

City Distance Mag. Time & Date
Minimum magnitude displayed is 2.5.

Coastal Water Temperatures

Locus Calor

Stations

Nearby Weather Stations

Station Location Temp Frigus Venti Frigus in quo Ros apparet Umor Ventus Precip. Elev Renovata Type